sensor_id;sensor_type;location;lat;lon;timestamp;P1;durP1;ratioP1;P2;durP2;ratioP2
20743;SDS011;56303;52.160;-0.428;2022-12-20T00:01:08;7.13;;;3.00;;
20743;SDS011;56303;52.160;-0.428;2022-12-20T00:03:37;10.93;;;3.37;;
20743;SDS011;56303;52.160;-0.428;2022-12-20T00:06:04;8.10;;;3.43;;
20743;SDS011;56303;52.160;-0.428;2022-12-20T00:08:31;11.20;;;4.10;;
20743;SDS011;56303;52.160;-0.428;2022-12-20T00:11:00;8.83;;;2.87;;
20743;SDS011;56303;52.160;-0.428;2022-12-20T00:13:30;10.13;;;3.57;;
20743;SDS011;56303;52.160;-0.428;2022-12-20T00:18:39;10.87;;;3.53;;
20743;SDS011;56303;52.160;-0.428;2022-12-20T00:21:09;9.23;;;3.70;;
20743;SDS011;56303;52.160;-0.428;2022-12-20T00:23:38;11.77;;;3.40;;
20743;SDS011;56303;52.160;-0.428;2022-12-20T00:26:15;9.30;;;2.97;;
20743;SDS011;56303;52.160;-0.428;2022-12-20T00:28:45;9.00;;;3.50;;
20743;SDS011;56303;52.160;-0.428;2022-12-20T00:31:13;6.87;;;2.63;;
20743;SDS011;56303;52.160;-0.428;2022-12-20T00:33:43;7.83;;;3.10;;
20743;SDS011;56303;52.160;-0.428;2022-12-20T00:36:12;5.60;;;2.40;;
20743;SDS011;56303;52.160;-0.428;2022-12-20T00:38:39;8.50;;;2.83;;
20743;SDS011;56303;52.160;-0.428;2022-12-20T00:41:07;7.57;;;2.73;;
20743;SDS011;56303;52.160;-0.428;2022-12-20T00:43:36;8.53;;;2.87;;
20743;SDS011;56303;52.160;-0.428;2022-12-20T00:46:04;9.77;;;2.97;;
20743;SDS011;56303;52.160;-0.428;2022-12-20T00:48:32;7.37;;;2.50;;
20743;SDS011;56303;52.160;-0.428;2022-12-20T00:51:04;7.83;;;2.37;;
20743;SDS011;56303;52.160;-0.428;2022-12-20T00:53:33;8.40;;;3.53;;
20743;SDS011;56303;52.160;-0.428;2022-12-20T00:56:01;8.17;;;3.00;;
20743;SDS011;56303;52.160;-0.428;2022-12-20T00:58:30;7.67;;;2.60;;
20743;SDS011;56303;52.160;-0.428;2022-12-20T01:01:02;11.07;;;2.90;;
20743;SDS011;56303;52.160;-0.428;2022-12-20T01:03:30;6.00;;;2.27;;
20743;SDS011;56303;52.160;-0.428;2022-12-20T01:06:01;8.30;;;2.63;;
20743;SDS011;56303;52.160;-0.428;2022-12-20T01:08:29;10.37;;;2.23;;
20743;SDS011;56303;52.160;-0.428;2022-12-20T01:10:59;6.03;;;2.23;;
20743;SDS011;56303;52.160;-0.428;2022-12-20T01:13:48;7.40;;;2.30;;
20743;SDS011;56303;52.160;-0.428;2022-12-20T01:16:18;6.43;;;1.80;;
20743;SDS011;56303;52.160;-0.428;2022-12-20T01:18:45;3.33;;;1.70;;
20743;SDS011;56303;52.160;-0.428;2022-12-20T01:21:15;5.67;;;2.00;;
20743;SDS011;56303;52.160;-0.428;2022-12-20T01:23:43;5.40;;;2.10;;
20743;SDS011;56303;52.160;-0.428;2022-12-20T01:26:11;3.57;;;1.50;;
20743;SDS011;56303;52.160;-0.428;2022-12-20T01:28:44;4.50;;;1.50;;
20743;SDS011;56303;52.160;-0.428;2022-12-20T01:31:13;2.53;;;1.30;;
20743;SDS011;56303;52.160;-0.428;2022-12-20T01:33:42;4.63;;;1.40;;
20743;SDS011;56303;52.160;-0.428;2022-12-20T01:36:12;5.57;;;1.47;;
20743;SDS011;56303;52.160;-0.428;2022-12-20T01:38:40;4.33;;;1.30;;
20743;SDS011;56303;52.160;-0.428;2022-12-20T01:41:09;2.93;;;1.20;;
20743;SDS011;56303;52.160;-0.428;2022-12-20T01:46:19;3.67;;;1.50;;
20743;SDS011;56303;52.160;-0.428;2022-12-20T01:49:07;5.10;;;2.27;;
20743;SDS011;56303;52.160;-0.428;2022-12-20T01:52:42;3.27;;;1.40;;
20743;SDS011;56303;52.160;-0.428;2022-12-20T01:54:50;2.93;;;1.37;;
20743;SDS011;56303;52.160;-0.428;2022-12-20T02:00:18;5.13;;;1.73;;
20743;SDS011;56303;52.160;-0.428;2022-12-20T02:02:46;4.37;;;1.40;;
20743;SDS011;56303;52.160;-0.428;2022-12-20T02:05:15;3.27;;;2.00;;
20743;SDS011;56303;52.160;-0.428;2022-12-20T02:07:44;3.13;;;1.30;;
20743;SDS011;56303;52.160;-0.428;2022-12-20T02:10:15;5.83;;;1.90;;
20743;SDS011;56303;52.160;-0.428;2022-12-20T02:12:44;4.00;;;1.30;;
20743;SDS011;56303;52.160;-0.428;2022-12-20T02:30:47;3.07;;;1.30;;
20743;SDS011;56303;52.160;-0.428;2022-12-20T02:33:16;4.83;;;2.03;;
20743;SDS011;56303;52.160;-0.428;2022-12-20T02:35:45;4.10;;;1.40;;
20743;SDS011;56303;52.160;-0.428;2022-12-20T02:41:05;3.83;;;1.40;;
20743;SDS011;56303;52.160;-0.428;2022-12-20T02:43:43;4.63;;;1.50;;
20743;SDS011;56303;52.160;-0.428;2022-12-20T02:46:31;4.03;;;1.27;;
20743;SDS011;56303;52.160;-0.428;2022-12-20T02:49:02;3.60;;;1.27;;
20743;SDS011;56303;52.160;-0.428;2022-12-20T02:51:34;6.13;;;2.60;;
20743;SDS011;56303;52.160;-0.428;2022-12-20T02:54:03;4.93;;;2.00;;
20743;SDS011;56303;52.160;-0.428;2022-12-20T02:59:49;6.30;;;1.73;;
20743;SDS011;56303;52.160;-0.428;2022-12-20T03:02:36;7.30;;;1.80;;
20743;SDS011;56303;52.160;-0.428;2022-12-20T03:05:22;5.07;;;2.03;;
20743;SDS011;56303;52.160;-0.428;2022-12-20T03:07:51;4.97;;;1.80;;
20743;SDS011;56303;52.160;-0.428;2022-12-20T03:10:19;7.33;;;2.10;;
20743;SDS011;56303;52.160;-0.428;2022-12-20T03:12:47;4.50;;;1.90;;
20743;SDS011;56303;52.160;-0.428;2022-12-20T03:15:14;6.37;;;2.30;;
20743;SDS011;56303;52.160;-0.428;2022-12-20T03:17:41;6.13;;;1.93;;
20743;SDS011;56303;52.160;-0.428;2022-12-20T03:20:08;7.07;;;1.80;;
20743;SDS011;56303;52.160;-0.428;2022-12-20T03:22:36;4.13;;;1.73;;
20743;SDS011;56303;52.160;-0.428;2022-12-20T03:25:04;4.93;;;1.77;;
20743;SDS011;56303;52.160;-0.428;2022-12-20T03:27:32;5.07;;;2.00;;
20743;SDS011;56303;52.160;-0.428;2022-12-20T03:29:59;4.90;;;1.73;;
20743;SDS011;56303;52.160;-0.428;2022-12-20T03:32:26;4.87;;;2.00;;
20743;SDS011;56303;52.160;-0.428;2022-12-20T03:34:53;10.93;;;2.00;;
20743;SDS011;56303;52.160;-0.428;2022-12-20T03:37:20;3.73;;;1.70;;
20743;SDS011;56303;52.160;-0.428;2022-12-20T03:39:47;7.47;;;2.10;;
20743;SDS011;56303;52.160;-0.428;2022-12-20T03:42:14;7.67;;;2.77;;
20743;SDS011;56303;52.160;-0.428;2022-12-20T03:44:41;6.53;;;2.73;;
20743;SDS011;56303;52.160;-0.428;2022-12-20T03:47:09;8.43;;;2.30;;
20743;SDS011;56303;52.160;-0.428;2022-12-20T03:49:36;9.23;;;3.23;;
20743;SDS011;56303;52.160;-0.428;2022-12-20T03:52:03;7.27;;;2.87;;
20743;SDS011;56303;52.160;-0.428;2022-12-20T03:54:30;8.53;;;3.33;;
20743;SDS011;56303;52.160;-0.428;2022-12-20T03:56:57;7.67;;;2.93;;
20743;SDS011;56303;52.160;-0.428;2022-12-20T03:59:24;12.40;;;4.23;;
20743;SDS011;56303;52.160;-0.428;2022-12-20T04:01:51;8.83;;;3.37;;
20743;SDS011;56303;52.160;-0.428;2022-12-20T04:04:18;11.87;;;3.97;;
20743;SDS011;56303;52.160;-0.428;2022-12-20T04:06:45;12.03;;;4.00;;
20743;SDS011;56303;52.160;-0.428;2022-12-20T04:09:13;10.13;;;3.53;;
20743;SDS011;56303;52.160;-0.428;2022-12-20T04:11:40;10.57;;;4.00;;
20743;SDS011;56303;52.160;-0.428;2022-12-20T04:14:07;13.47;;;4.20;;
20743;SDS011;56303;52.160;-0.428;2022-12-20T04:16:35;12.33;;;4.77;;
20743;SDS011;56303;52.160;-0.428;2022-12-20T04:19:02;10.73;;;4.33;;
20743;SDS011;56303;52.160;-0.428;2022-12-20T04:21:30;11.87;;;4.13;;
20743;SDS011;56303;52.160;-0.428;2022-12-20T04:24:00;14.67;;;4.93;;
20743;SDS011;56303;52.160;-0.428;2022-12-20T04:26:28;13.60;;;3.93;;
20743;SDS011;56303;52.160;-0.428;2022-12-20T04:28:55;10.70;;;3.63;;
20743;SDS011;56303;52.160;-0.428;2022-12-20T04:31:22;11.60;;;4.10;;
20743;SDS011;56303;52.160;-0.428;2022-12-20T04:33:50;6.97;;;2.37;;
20743;SDS011;56303;52.160;-0.428;2022-12-20T04:36:17;6.00;;;2.50;;
20743;SDS011;56303;52.160;-0.428;2022-12-20T04:38:45;8.73;;;3.17;;
20743;SDS011;56303;52.160;-0.428;2022-12-20T04:41:12;7.37;;;2.10;;
20743;SDS011;56303;52.160;-0.428;2022-12-20T04:43:51;6.93;;;2.10;;
20743;SDS011;56303;52.160;-0.428;2022-12-20T04:46:20;5.70;;;1.90;;
20743;SDS011;56303;52.160;-0.428;2022-12-20T04:48:48;5.43;;;2.03;;
20743;SDS011;56303;52.160;-0.428;2022-12-20T04:51:25;6.67;;;2.00;;
20743;SDS011;56303;52.160;-0.428;2022-12-20T04:53:53;7.20;;;2.13;;
20743;SDS011;56303;52.160;-0.428;2022-12-20T04:56:24;6.00;;;2.40;;
20743;SDS011;56303;52.160;-0.428;2022-12-20T04:58:54;3.37;;;1.90;;
20743;SDS011;56303;52.160;-0.428;2022-12-20T05:01:22;5.80;;;2.37;;
20743;SDS011;56303;52.160;-0.428;2022-12-20T05:03:49;4.80;;;2.30;;
20743;SDS011;56303;52.160;-0.428;2022-12-20T05:06:17;7.10;;;2.37;;
20743;SDS011;56303;52.160;-0.428;2022-12-20T05:08:44;5.50;;;2.30;;
20743;SDS011;56303;52.160;-0.428;2022-12-20T05:11:11;3.63;;;2.07;;
20743;SDS011;56303;52.160;-0.428;2022-12-20T05:13:38;7.17;;;3.13;;
20743;SDS011;56303;52.160;-0.428;2022-12-20T05:16:05;7.03;;;2.20;;
20743;SDS011;56303;52.160;-0.428;2022-12-20T05:18:32;5.20;;;1.97;;
20743;SDS011;56303;52.160;-0.428;2022-12-20T05:20:59;6.60;;;2.07;;
20743;SDS011;56303;52.160;-0.428;2022-12-20T05:23:45;6.10;;;2.10;;
20743;SDS011;56303;52.160;-0.428;2022-12-20T05:26:35;5.20;;;1.87;;
20743;SDS011;56303;52.160;-0.428;2022-12-20T05:29:03;3.17;;;1.00;;
20743;SDS011;56303;52.160;-0.428;2022-12-20T05:31:31;1.23;;;0.20;;
20743;SDS011;56303;52.160;-0.428;2022-12-20T05:33:58;0.80;;;0.43;;
20743;SDS011;56303;52.160;-0.428;2022-12-20T05:36:25;2.03;;;1.10;;
20743;SDS011;56303;52.160;-0.428;2022-12-20T05:38:52;2.67;;;1.40;;
20743;SDS011;56303;52.160;-0.428;2022-12-20T05:41:28;3.40;;;1.43;;
20743;SDS011;56303;52.160;-0.428;2022-12-20T05:43:55;4.27;;;1.87;;
20743;SDS011;56303;52.160;-0.428;2022-12-20T05:46:22;5.17;;;1.90;;
20743;SDS011;56303;52.160;-0.428;2022-12-20T05:48:49;4.70;;;2.17;;
20743;SDS011;56303;52.160;-0.428;2022-12-20T05:51:16;4.57;;;1.80;;
20743;SDS011;56303;52.160;-0.428;2022-12-20T05:53:43;6.63;;;2.60;;
20743;SDS011;56303;52.160;-0.428;2022-12-20T05:56:10;5.53;;;2.57;;
20743;SDS011;56303;52.160;-0.428;2022-12-20T05:58:37;5.10;;;2.17;;
20743;SDS011;56303;52.160;-0.428;2022-12-20T06:01:06;3.63;;;2.63;;
20743;SDS011;56303;52.160;-0.428;2022-12-20T06:03:34;4.07;;;2.67;;
20743;SDS011;56303;52.160;-0.428;2022-12-20T06:06:02;4.70;;;2.30;;
20743;SDS011;56303;52.160;-0.428;2022-12-20T06:08:37;3.53;;;1.90;;
20743;SDS011;56303;52.160;-0.428;2022-12-20T06:11:04;1.50;;;0.87;;
20743;SDS011;56303;52.160;-0.428;2022-12-20T06:13:32;3.73;;;1.23;;
20743;SDS011;56303;52.160;-0.428;2022-12-20T06:15:59;1.43;;;0.77;;
20743;SDS011;56303;52.160;-0.428;2022-12-20T06:18:26;1.37;;;0.63;;
20743;SDS011;56303;52.160;-0.428;2022-12-20T06:20:53;1.47;;;0.80;;
20743;SDS011;56303;52.160;-0.428;2022-12-20T06:23:20;4.57;;;1.00;;
20743;SDS011;56303;52.160;-0.428;2022-12-20T06:25:48;0.60;;;0.57;;
20743;SDS011;56303;52.160;-0.428;2022-12-20T06:28:15;2.07;;;0.67;;
20743;SDS011;56303;52.160;-0.428;2022-12-20T06:30:54;1.67;;;0.60;;
20743;SDS011;56303;52.160;-0.428;2022-12-20T06:33:22;3.77;;;1.30;;
20743;SDS011;56303;52.160;-0.428;2022-12-20T06:35:49;2.63;;;1.10;;
20743;SDS011;56303;52.160;-0.428;2022-12-20T06:38:17;2.97;;;1.10;;
20743;SDS011;56303;52.160;-0.428;2022-12-20T06:40:43;2.83;;;0.83;;
20743;SDS011;56303;52.160;-0.428;2022-12-20T06:43:11;2.37;;;0.70;;
20743;SDS011;56303;52.160;-0.428;2022-12-20T06:45:38;2.30;;;0.97;;
20743;SDS011;56303;52.160;-0.428;2022-12-20T06:48:07;3.57;;;1.00;;
20743;SDS011;56303;52.160;-0.428;2022-12-20T06:50:36;3.10;;;1.13;;
20743;SDS011;56303;52.160;-0.428;2022-12-20T06:53:04;3.47;;;1.00;;
20743;SDS011;56303;52.160;-0.428;2022-12-20T06:55:31;1.50;;;0.90;;
20743;SDS011;56303;52.160;-0.428;2022-12-20T06:57:59;2.20;;;1.00;;
20743;SDS011;56303;52.160;-0.428;2022-12-20T07:00:26;2.73;;;0.97;;
20743;SDS011;56303;52.160;-0.428;2022-12-20T07:02:53;2.17;;;1.07;;
20743;SDS011;56303;52.160;-0.428;2022-12-20T07:05:20;2.27;;;1.10;;
20743;SDS011;56303;52.160;-0.428;2022-12-20T07:07:47;3.07;;;1.20;;
20743;SDS011;56303;52.160;-0.428;2022-12-20T07:10:15;5.37;;;1.37;;
20743;SDS011;56303;52.160;-0.428;2022-12-20T07:12:42;2.33;;;1.40;;
20743;SDS011;56303;52.160;-0.428;2022-12-20T07:15:13;6.03;;;2.30;;
20743;SDS011;56303;52.160;-0.428;2022-12-20T07:17:41;3.23;;;1.27;;
20743;SDS011;56303;52.160;-0.428;2022-12-20T07:20:08;3.17;;;1.33;;
20743;SDS011;56303;52.160;-0.428;2022-12-20T07:22:56;1.80;;;0.80;;
20743;SDS011;56303;52.160;-0.428;2022-12-20T07:25:23;1.87;;;1.10;;
20743;SDS011;56303;52.160;-0.428;2022-12-20T07:27:51;4.27;;;1.23;;
20743;SDS011;56303;52.160;-0.428;2022-12-20T07:30:18;5.10;;;1.90;;
20743;SDS011;56303;52.160;-0.428;2022-12-20T07:32:46;2.60;;;1.30;;
20743;SDS011;56303;52.160;-0.428;2022-12-20T07:35:13;2.03;;;1.00;;
20743;SDS011;56303;52.160;-0.428;2022-12-20T07:37:41;2.70;;;1.10;;
20743;SDS011;56303;52.160;-0.428;2022-12-20T07:40:09;1.97;;;0.90;;
20743;SDS011;56303;52.160;-0.428;2022-12-20T07:42:37;4.90;;;1.23;;
20743;SDS011;56303;52.160;-0.428;2022-12-20T07:45:11;3.57;;;1.10;;
20743;SDS011;56303;52.160;-0.428;2022-12-20T07:47:38;2.73;;;1.03;;
20743;SDS011;56303;52.160;-0.428;2022-12-20T07:50:05;2.97;;;1.27;;
20743;SDS011;56303;52.160;-0.428;2022-12-20T07:52:33;4.87;;;1.87;;
20743;SDS011;56303;52.160;-0.428;2022-12-20T07:55:01;4.07;;;1.33;;
20743;SDS011;56303;52.160;-0.428;2022-12-20T07:57:33;2.13;;;1.47;;
20743;SDS011;56303;52.160;-0.428;2022-12-20T08:00:08;2.77;;;1.37;;
20743;SDS011;56303;52.160;-0.428;2022-12-20T08:02:40;5.83;;;1.63;;
20743;SDS011;56303;52.160;-0.428;2022-12-20T08:05:14;4.30;;;1.70;;
20743;SDS011;56303;52.160;-0.428;2022-12-20T08:07:43;4.07;;;1.20;;
20743;SDS011;56303;52.160;-0.428;2022-12-20T08:10:12;2.87;;;1.97;;
20743;SDS011;56303;52.160;-0.428;2022-12-20T08:12:41;3.30;;;1.50;;
20743;SDS011;56303;52.160;-0.428;2022-12-20T08:15:10;5.13;;;1.20;;
20743;SDS011;56303;52.160;-0.428;2022-12-20T08:17:37;3.67;;;1.50;;
20743;SDS011;56303;52.160;-0.428;2022-12-20T08:20:04;5.63;;;1.60;;
20743;SDS011;56303;52.160;-0.428;2022-12-20T08:22:33;2.73;;;1.40;;
20743;SDS011;56303;52.160;-0.428;2022-12-20T08:25:01;5.57;;;1.90;;
20743;SDS011;56303;52.160;-0.428;2022-12-20T08:27:28;7.30;;;1.90;;
20743;SDS011;56303;52.160;-0.428;2022-12-20T08:29:55;7.43;;;2.50;;
20743;SDS011;56303;52.160;-0.428;2022-12-20T08:32:22;2.97;;;1.80;;
20743;SDS011;56303;52.160;-0.428;2022-12-20T08:34:51;5.30;;;2.27;;
20743;SDS011;56303;52.160;-0.428;2022-12-20T08:37:18;3.97;;;2.40;;
20743;SDS011;56303;52.160;-0.428;2022-12-20T08:39:45;5.73;;;2.77;;
20743;SDS011;56303;52.160;-0.428;2022-12-20T08:42:12;6.37;;;2.67;;
20743;SDS011;56303;52.160;-0.428;2022-12-20T08:44:39;6.17;;;3.17;;
20743;SDS011;56303;52.160;-0.428;2022-12-20T08:47:07;6.40;;;2.73;;
20743;SDS011;56303;52.160;-0.428;2022-12-20T08:49:34;5.60;;;3.33;;
20743;SDS011;56303;52.160;-0.428;2022-12-20T08:52:01;6.77;;;3.10;;
20743;SDS011;56303;52.160;-0.428;2022-12-20T08:54:28;5.67;;;3.03;;
20743;SDS011;56303;52.160;-0.428;2022-12-20T08:56:54;4.67;;;2.53;;
20743;SDS011;56303;52.160;-0.428;2022-12-20T08:59:21;4.37;;;2.90;;
20743;SDS011;56303;52.160;-0.428;2022-12-20T09:01:48;5.17;;;2.60;;
20743;SDS011;56303;52.160;-0.428;2022-12-20T09:04:15;4.57;;;2.73;;
20743;SDS011;56303;52.160;-0.428;2022-12-20T09:06:42;5.40;;;3.00;;
20743;SDS011;56303;52.160;-0.428;2022-12-20T09:09:10;5.53;;;2.53;;
20743;SDS011;56303;52.160;-0.428;2022-12-20T09:11:37;4.33;;;2.50;;
20743;SDS011;56303;52.160;-0.428;2022-12-20T09:14:04;9.50;;;3.20;;
20743;SDS011;56303;52.160;-0.428;2022-12-20T09:16:31;9.53;;;2.60;;
20743;SDS011;56303;52.160;-0.428;2022-12-20T09:18:59;3.80;;;2.80;;
20743;SDS011;56303;52.160;-0.428;2022-12-20T09:21:31;4.17;;;2.60;;
20743;SDS011;56303;52.160;-0.428;2022-12-20T09:23:59;6.23;;;2.90;;
20743;SDS011;56303;52.160;-0.428;2022-12-20T09:26:26;4.83;;;2.40;;
20743;SDS011;56303;52.160;-0.428;2022-12-20T09:28:53;6.63;;;2.77;;
20743;SDS011;56303;52.160;-0.428;2022-12-20T09:31:22;6.70;;;2.80;;
20743;SDS011;56303;52.160;-0.428;2022-12-20T09:33:52;7.03;;;2.33;;
20743;SDS011;56303;52.160;-0.428;2022-12-20T09:36:21;5.80;;;2.20;;
20743;SDS011;56303;52.160;-0.428;2022-12-20T09:38:49;5.23;;;2.20;;
20743;SDS011;56303;52.160;-0.428;2022-12-20T09:43:59;7.17;;;2.90;;
20743;SDS011;56303;52.160;-0.428;2022-12-20T09:46:30;4.50;;;1.83;;
20743;SDS011;56303;52.160;-0.428;2022-12-20T09:48:58;5.80;;;2.03;;
20743;SDS011;56303;52.160;-0.428;2022-12-20T09:51:44;7.20;;;2.83;;
20743;SDS011;56303;52.160;-0.428;2022-12-20T09:54:30;7.17;;;2.70;;
20743;SDS011;56303;52.160;-0.428;2022-12-20T09:59:56;11.03;;;3.70;;
20743;SDS011;56303;52.160;-0.428;2022-12-20T10:02:24;10.07;;;3.17;;
20743;SDS011;56303;52.160;-0.428;2022-12-20T10:05:12;10.50;;;2.53;;
20743;SDS011;56303;52.160;-0.428;2022-12-20T10:08:22;9.23;;;2.80;;
20743;SDS011;56303;52.160;-0.428;2022-12-20T10:13:29;8.87;;;3.17;;
20743;SDS011;56303;52.160;-0.428;2022-12-20T10:24:28;8.07;;;3.33;;
20743;SDS011;56303;52.160;-0.428;2022-12-20T10:27:16;12.50;;;3.30;;
20743;SDS011;56303;52.160;-0.428;2022-12-20T10:29:45;8.20;;;3.77;;
20743;SDS011;56303;52.160;-0.428;2022-12-20T10:32:19;10.13;;;3.43;;
20743;SDS011;56303;52.160;-0.428;2022-12-20T10:34:51;7.97;;;3.30;;
20743;SDS011;56303;52.160;-0.428;2022-12-20T10:37:23;10.97;;;3.80;;
20743;SDS011;56303;52.160;-0.428;2022-12-20T10:39:51;7.50;;;2.97;;
20743;SDS011;56303;52.160;-0.428;2022-12-20T10:42:25;10.03;;;3.10;;
20743;SDS011;56303;52.160;-0.428;2022-12-20T10:45:20;8.10;;;3.03;;
20743;SDS011;56303;52.160;-0.428;2022-12-20T10:48:02;13.63;;;3.27;;
20743;SDS011;56303;52.160;-0.428;2022-12-20T10:50:32;11.20;;;3.43;;
20743;SDS011;56303;52.160;-0.428;2022-12-20T10:53:04;7.00;;;2.60;;
20743;SDS011;56303;52.160;-0.428;2022-12-20T10:55:47;13.00;;;3.10;;
20743;SDS011;56303;52.160;-0.428;2022-12-20T10:58:28;12.30;;;3.67;;
20743;SDS011;56303;52.160;-0.428;2022-12-20T11:01:03;7.00;;;2.73;;
20743;SDS011;56303;52.160;-0.428;2022-12-20T11:03:59;9.23;;;2.27;;
20743;SDS011;56303;52.160;-0.428;2022-12-20T11:06:49;12.27;;;3.13;;
20743;SDS011;56303;52.160;-0.428;2022-12-20T11:14:23;7.70;;;2.53;;
20743;SDS011;56303;52.160;-0.428;2022-12-20T11:16:52;11.93;;;3.17;;
20743;SDS011;56303;52.160;-0.428;2022-12-20T11:19:32;11.23;;;3.20;;
20743;SDS011;56303;52.160;-0.428;2022-12-20T11:22:31;12.80;;;3.00;;
20743;SDS011;56303;52.160;-0.428;2022-12-20T11:25:02;9.67;;;2.73;;
20743;SDS011;56303;52.160;-0.428;2022-12-20T11:33:44;10.63;;;3.10;;
20743;SDS011;56303;52.160;-0.428;2022-12-20T11:36:33;10.53;;;3.10;;
20743;SDS011;56303;52.160;-0.428;2022-12-20T11:41:44;10.40;;;3.37;;
20743;SDS011;56303;52.160;-0.428;2022-12-20T11:47:30;10.13;;;2.87;;
20743;SDS011;56303;52.160;-0.428;2022-12-20T12:00:40;16.00;;;4.33;;
20743;SDS011;56303;52.160;-0.428;2022-12-20T12:05:57;11.80;;;3.60;;
20743;SDS011;56303;52.160;-0.428;2022-12-20T12:08:31;11.20;;;4.17;;
20743;SDS011;56303;52.160;-0.428;2022-12-20T12:11:07;15.20;;;3.70;;
20743;SDS011;56303;52.160;-0.428;2022-12-20T12:17:35;12.13;;;3.63;;
20743;SDS011;56303;52.160;-0.428;2022-12-20T12:20:14;13.13;;;4.03;;
20743;SDS011;56303;52.160;-0.428;2022-12-20T12:22:50;15.97;;;3.67;;
20743;SDS011;56303;52.160;-0.428;2022-12-20T12:25:23;10.70;;;3.30;;
20743;SDS011;56303;52.160;-0.428;2022-12-20T12:27:50;15.30;;;4.77;;
20743;SDS011;56303;52.160;-0.428;2022-12-20T12:30:17;14.63;;;4.17;;
20743;SDS011;56303;52.160;-0.428;2022-12-20T12:46:18;13.03;;;3.07;;
20743;SDS011;56303;52.160;-0.428;2022-12-20T12:49:31;10.13;;;3.23;;
20743;SDS011;56303;52.160;-0.428;2022-12-20T12:51:48;14.50;;;3.47;;
20743;SDS011;56303;52.160;-0.428;2022-12-20T12:56:47;11.97;;;3.83;;
20743;SDS011;56303;52.160;-0.428;2022-12-20T13:17:51;14.40;;;3.73;;
20743;SDS011;56303;52.160;-0.428;2022-12-20T13:21:15;12.23;;;5.07;;
20743;SDS011;56303;52.160;-0.428;2022-12-20T13:23:44;15.20;;;4.23;;
20743;SDS011;56303;52.160;-0.428;2022-12-20T13:26:41;15.90;;;4.00;;
20743;SDS011;56303;52.160;-0.428;2022-12-20T13:29:25;11.13;;;3.33;;
20743;SDS011;56303;52.160;-0.428;2022-12-20T13:31:57;11.40;;;4.20;;
20743;SDS011;56303;52.160;-0.428;2022-12-20T13:37:50;9.40;;;3.67;;
20743;SDS011;56303;52.160;-0.428;2022-12-20T13:40:41;16.83;;;4.33;;
20743;SDS011;56303;52.160;-0.428;2022-12-20T13:48:52;11.90;;;3.93;;
20743;SDS011;56303;52.160;-0.428;2022-12-20T13:51:24;13.97;;;4.07;;
20743;SDS011;56303;52.160;-0.428;2022-12-20T13:53:56;13.33;;;3.50;;
20743;SDS011;56303;52.160;-0.428;2022-12-20T13:56:32;12.93;;;4.17;;
20743;SDS011;56303;52.160;-0.428;2022-12-20T13:59:21;14.13;;;5.13;;
20743;SDS011;56303;52.160;-0.428;2022-12-20T14:01:58;12.87;;;3.97;;
20743;SDS011;56303;52.160;-0.428;2022-12-20T14:04:37;13.63;;;4.37;;
20743;SDS011;56303;52.160;-0.428;2022-12-20T14:07:07;14.93;;;4.17;;
20743;SDS011;56303;52.160;-0.428;2022-12-20T14:09:45;13.03;;;4.70;;
20743;SDS011;56303;52.160;-0.428;2022-12-20T14:12:20;12.93;;;3.47;;
20743;SDS011;56303;52.160;-0.428;2022-12-20T14:14:55;17.00;;;4.20;;
20743;SDS011;56303;52.160;-0.428;2022-12-20T14:17:26;18.43;;;5.03;;
20743;SDS011;56303;52.160;-0.428;2022-12-20T14:25:31;18.27;;;4.03;;
20743;SDS011;56303;52.160;-0.428;2022-12-20T14:28:08;14.33;;;3.80;;
20743;SDS011;56303;52.160;-0.428;2022-12-20T14:30:52;11.97;;;4.23;;
20743;SDS011;56303;52.160;-0.428;2022-12-20T14:33:23;13.17;;;4.50;;
20743;SDS011;56303;52.160;-0.428;2022-12-20T14:35:56;16.90;;;4.43;;
20743;SDS011;56303;52.160;-0.428;2022-12-20T14:38:28;13.10;;;4.20;;
20743;SDS011;56303;52.160;-0.428;2022-12-20T14:40:56;22.17;;;5.20;;
20743;SDS011;56303;52.160;-0.428;2022-12-20T14:43:25;16.87;;;4.47;;
20743;SDS011;56303;52.160;-0.428;2022-12-20T14:51:48;14.63;;;4.33;;
20743;SDS011;56303;52.160;-0.428;2022-12-20T14:54:24;13.57;;;3.27;;
20743;SDS011;56303;52.160;-0.428;2022-12-20T14:57:23;12.93;;;4.17;;
20743;SDS011;56303;52.160;-0.428;2022-12-20T15:00:11;16.93;;;4.07;;
20743;SDS011;56303;52.160;-0.428;2022-12-20T15:05:34;11.47;;;3.77;;
20743;SDS011;56303;52.160;-0.428;2022-12-20T15:13:18;13.93;;;4.77;;
20743;SDS011;56303;52.160;-0.428;2022-12-20T15:15:47;18.87;;;6.33;;
20743;SDS011;56303;52.160;-0.428;2022-12-20T15:18:16;17.83;;;5.47;;
20743;SDS011;56303;52.160;-0.428;2022-12-20T15:20:45;19.17;;;5.23;;
20743;SDS011;56303;52.160;-0.428;2022-12-20T15:23:25;12.37;;;4.90;;
20743;SDS011;56303;52.160;-0.428;2022-12-20T15:25:52;13.50;;;3.93;;
20743;SDS011;56303;52.160;-0.428;2022-12-20T15:28:20;17.87;;;4.43;;
20743;SDS011;56303;52.160;-0.428;2022-12-20T15:30:49;17.50;;;4.07;;
20743;SDS011;56303;52.160;-0.428;2022-12-20T15:33:19;14.33;;;4.40;;
20743;SDS011;56303;52.160;-0.428;2022-12-20T15:35:51;22.67;;;5.30;;
20743;SDS011;56303;52.160;-0.428;2022-12-20T15:38:20;13.60;;;5.33;;
20743;SDS011;56303;52.160;-0.428;2022-12-20T15:41:22;20.07;;;4.50;;
20743;SDS011;56303;52.160;-0.428;2022-12-20T15:44:05;19.53;;;4.80;;
20743;SDS011;56303;52.160;-0.428;2022-12-20T15:46:36;16.23;;;4.47;;
20743;SDS011;56303;52.160;-0.428;2022-12-20T15:49:03;18.63;;;4.90;;
20743;SDS011;56303;52.160;-0.428;2022-12-20T15:51:32;16.77;;;4.80;;
20743;SDS011;56303;52.160;-0.428;2022-12-20T15:54:02;15.67;;;4.27;;
20743;SDS011;56303;52.160;-0.428;2022-12-20T15:56:31;16.90;;;6.00;;
20743;SDS011;56303;52.160;-0.428;2022-12-20T15:58:59;18.53;;;5.53;;
20743;SDS011;56303;52.160;-0.428;2022-12-20T16:01:43;19.87;;;6.43;;
20743;SDS011;56303;52.160;-0.428;2022-12-20T16:04:12;19.73;;;6.60;;
20743;SDS011;56303;52.160;-0.428;2022-12-20T16:06:45;20.53;;;5.60;;
20743;SDS011;56303;52.160;-0.428;2022-12-20T16:09:14;14.90;;;4.90;;
20743;SDS011;56303;52.160;-0.428;2022-12-20T16:11:41;17.13;;;4.97;;
20743;SDS011;56303;52.160;-0.428;2022-12-20T16:14:19;18.33;;;4.63;;
20743;SDS011;56303;52.160;-0.428;2022-12-20T16:16:46;19.93;;;5.60;;
20743;SDS011;56303;52.160;-0.428;2022-12-20T16:19:15;15.23;;;5.03;;
20743;SDS011;56303;52.160;-0.428;2022-12-20T16:21:44;15.20;;;5.10;;
20743;SDS011;56303;52.160;-0.428;2022-12-20T16:24:13;14.37;;;5.00;;
20743;SDS011;56303;52.160;-0.428;2022-12-20T16:26:42;20.17;;;7.07;;
20743;SDS011;56303;52.160;-0.428;2022-12-20T16:29:10;17.57;;;5.93;;
20743;SDS011;56303;52.160;-0.428;2022-12-20T16:31:38;20.60;;;5.30;;
20743;SDS011;56303;52.160;-0.428;2022-12-20T16:34:14;19.13;;;5.50;;
20743;SDS011;56303;52.160;-0.428;2022-12-20T16:36:43;12.50;;;4.53;;
20743;SDS011;56303;52.160;-0.428;2022-12-20T16:39:12;14.83;;;4.57;;
20743;SDS011;56303;52.160;-0.428;2022-12-20T16:41:39;11.33;;;4.57;;
20743;SDS011;56303;52.160;-0.428;2022-12-20T16:44:12;18.57;;;5.70;;
20743;SDS011;56303;52.160;-0.428;2022-12-20T16:46:41;15.07;;;4.90;;
20743;SDS011;56303;52.160;-0.428;2022-12-20T16:49:09;19.00;;;5.07;;
20743;SDS011;56303;52.160;-0.428;2022-12-20T16:51:45;18.70;;;5.53;;
20743;SDS011;56303;52.160;-0.428;2022-12-20T16:54:16;21.10;;;5.73;;
20743;SDS011;56303;52.160;-0.428;2022-12-20T16:56:47;16.57;;;5.10;;
20743;SDS011;56303;52.160;-0.428;2022-12-20T16:59:24;19.40;;;5.67;;
20743;SDS011;56303;52.160;-0.428;2022-12-20T17:01:52;18.50;;;5.30;;
20743;SDS011;56303;52.160;-0.428;2022-12-20T17:04:22;15.93;;;5.37;;
20743;SDS011;56303;52.160;-0.428;2022-12-20T17:06:50;10.77;;;4.40;;
20743;SDS011;56303;52.160;-0.428;2022-12-20T17:09:17;14.03;;;5.13;;
20743;SDS011;56303;52.160;-0.428;2022-12-20T17:12:04;13.60;;;4.77;;
20743;SDS011;56303;52.160;-0.428;2022-12-20T17:14:39;22.10;;;4.90;;
20743;SDS011;56303;52.160;-0.428;2022-12-20T17:17:06;15.03;;;4.20;;